Terminal Aerodrome Forecast
Issued by NWS Louisville, KY

Home | Current Version | Previous Version | Text Only | Print | Product List | Glossary On
Versions: 1 2 3 4 5 6 7 8 9 10 11 12 13 14 15 16 17
031
FTUS43 KLMK 170525
TAFLEX
TAF
KLEX 170525Z 1706/1806 06005KT P6SM BKN012
     FM170900 09008KT P6SM BKN008
     FM171200 09007KT 6SM BR BKN015
     FM171500 13010KT P6SM SCT015
     FM171700 16009KT P6SM SCT180
     FM180200 18012KT P6SM BKN120 WS020/20045KT=

USA.gov is the U.S. government's official web portal to all federal, state and local government web resources and services.